Perth Jandakot Airport
YPJT : now visible

Airfield :











YOU CAN JOIN US ON...

 
LOGIN :

Register | Disclaimer

   EN    FR    IT 

 









Legend :    VFR   Marginal VFR   IFR   Intensive IFR   Very Intensive IFR
Visi :
Ceiling :
>= 8 km
>= 3000ft
5 to 8 km
1000 to 3000 ft
1500m to 5 km
500 to 1000 ft
800 to 1500m
200 to 500 ft
< 800m
< 200 ft
Symbols :   Thunderstorms  Fog  Heavy snow  Heavy precipitations  Wind > 20 kt






- Airport Elevation : 99 ft
- IATA code : JAD


YPJT - Perth Jandakot

CURRENT METAR :
  • 260400Z AUTO 04001KT 9999 // SCT024 OVC039 15/11 Q1020

EXPIRED METARs :
  • 260330Z AUTO 35005KT 9999 // OVC041 15/11 Q1020 RF00.0/000.0
  • 260300Z AUTO 35004KT 9999 // OVC039 14/11 Q1021 RF00.0/000.0
  • 260230Z AUTO 35007KT 9999 // BKN037 OVC051 13/12 Q1021
  • 260200Z AUTO 33004KT 9999 // SCT033 BKN037 BKN045 13/11 Q1021
  • 260130Z AUTO 03006KT 9999 // BKN055 BKN066 13/12 Q1020

TAF AMD TAF YPJT
Valid from the 26 at 00:00 until the 26 at 18:00 UTC


252327Z 2600/2618 04005KT 9999 -SHRA SCT020 BKN035
FM260600 34006KT 9999 NSW BKN040 INTER 2600/2604 4000 SHRA SCT010 BKN015
YMMM FIR / Oceania



MET'MAP, your aeronautical weather chart ! - Copyright ORBIFLY December 2007 - Disclaimer

ORBIFLY MET'MAP TEAM :

Programming & Development : Alexandra Zaïnal
Concept & original design : Baudouin d'Aumeries
Assistance for programming : Marc-Olivier Méhu
Technical & hardware support : Manuel Goepfert

Contact : metmap@orbifly.com




SOURCES & CREDITS :

   NOAA       Earth
Advisory